createdAt,value
2022-08-27T00:00:43.781Z,101245.28
2022-08-27T00:03:17.553Z,101243.91
2022-08-27T00:05:52.293Z,101250.75
2022-08-27T00:08:24.327Z,101254.06
2022-08-27T00:10:56.325Z,101245.72
2022-08-27T00:13:28.440Z,101252.34
2022-08-27T00:16:00.566Z,101250.41
2022-08-27T00:18:34.766Z,101241.88
2022-08-27T00:21:07.066Z,101241.34
2022-08-27T00:23:39.993Z,101240.84
2022-08-27T00:26:12.476Z,101232.56
2022-08-27T00:28:47.685Z,101235.81
2022-08-27T00:31:19.789Z,101230.84
2022-08-27T00:33:58.043Z,101231.09
2022-08-27T00:36:29.908Z,101230.78
2022-08-27T00:39:02.698Z,101228.81
2022-08-27T00:41:35.134Z,101229.06
2022-08-27T00:44:07.474Z,101224.56
2022-08-27T00:46:44.270Z,101234.47
2022-08-27T00:49:20.737Z,101238.81
2022-08-27T00:52:06.111Z,101234.63
2022-08-27T00:54:38.684Z,101229.66
2022-08-27T00:57:11.018Z,101236.00
2022-08-27T00:59:44.282Z,101241.78
2022-08-27T01:02:19.268Z,101232.34
2022-08-27T01:05:01.662Z,101243.09
2022-08-27T01:07:37.079Z,101242.75
2022-08-27T01:10:12.766Z,101244.69
2022-08-27T01:12:44.941Z,101250.22
2022-08-27T01:15:27.951Z,101248.53
2022-08-27T01:18:00.691Z,101264.00
2022-08-27T01:20:59.169Z,101264.00
2022-08-27T01:23:42.909Z,101267.84
2022-08-27T01:26:15.943Z,101270.84
2022-08-27T01:28:49.112Z,101276.13
2022-08-27T01:31:21.334Z,101278.88
2022-08-27T01:33:57.803Z,101280.22
2022-08-27T01:36:29.803Z,101284.59
2022-08-27T01:39:03.227Z,101280.69
2022-08-27T01:41:38.932Z,101275.41
2022-08-27T01:44:12.559Z,101274.31
2022-08-27T01:46:44.781Z,101278.75
2022-08-27T01:49:16.779Z,101276.56
2022-08-27T01:51:48.679Z,101274.91
2022-08-27T01:54:20.808Z,101268.22
2022-08-27T01:56:52.779Z,101274.25
2022-08-27T01:59:25.678Z,101270.06
2022-08-27T02:02:13.864Z,101275.59
2022-08-27T02:04:46.075Z,101263.75
2022-08-27T02:07:18.360Z,101261.00
2022-08-27T02:09:50.387Z,101260.41
2022-08-27T02:12:22.380Z,101253.72
2022-08-27T02:14:54.372Z,101246.72
2022-08-27T02:17:26.508Z,101240.38
2022-08-27T02:19:59.166Z,101235.69
2022-08-27T02:22:31.227Z,101240.97
2022-08-27T02:25:03.888Z,101247.91
2022-08-27T02:27:36.837Z,101249.25
2022-08-27T02:30:11.861Z,101254.16
2022-08-27T02:32:47.229Z,101255.78
2022-08-27T02:35:40.517Z,101253.59
2022-08-27T02:38:13.362Z,101256.91
2022-08-27T02:40:45.570Z,101253.59
2022-08-27T02:43:25.020Z,101246.41
2022-08-27T02:45:57.555Z,101258.03
2022-08-27T02:48:29.514Z,101255.53
2022-08-27T02:51:01.512Z,101271.81
2022-08-27T02:53:34.660Z,101261.03
2022-08-27T02:56:07.513Z,101258.53
2022-08-27T02:58:41.399Z,101270.16
2022-08-27T03:01:13.774Z,101262.72
2022-08-27T03:03:47.150Z,101267.88
2022-08-27T03:06:19.148Z,101263.13
2022-08-27T03:08:52.839Z,101269.75
2022-08-27T03:11:25.711Z,101265.81
2022-08-27T03:13:58.955Z,101274.84
2022-08-27T03:16:34.330Z,101263.47
2022-08-27T03:19:07.110Z,101266.47
2022-08-27T03:21:39.194Z,101261.56
2022-08-27T03:24:14.806Z,101265.16
2022-08-27T03:26:52.657Z,101258.81
2022-08-27T03:29:25.881Z,101265.16
2022-08-27T03:31:57.753Z,101263.81
2022-08-27T03:34:30.050Z,101268.25
2022-08-27T03:37:01.990Z,101261.91
2022-08-27T03:39:34.418Z,101265.41
2022-08-27T03:42:06.321Z,101265.06
2022-08-27T03:44:38.392Z,101266.16
2022-08-27T03:47:10.386Z,101265.56
2022-08-27T03:49:42.530Z,101270.84
2022-08-27T03:52:15.013Z,101267.84
2022-08-27T03:54:47.015Z,101267.59
2022-08-27T03:57:18.971Z,101272.59
2022-08-27T03:59:53.026Z,101273.66
2022-08-27T04:02:27.198Z,101272.00
2022-08-27T04:04:59.447Z,101262.56
2022-08-27T04:07:32.467Z,101265.00
2022-08-27T04:10:05.849Z,101256.97
2022-08-27T04:12:39.110Z,101257.81
2022-08-27T04:15:12.370Z,101259.97
2022-08-27T04:17:44.476Z,101261.94
2022-08-27T04:20:34.506Z,101268.53
2022-08-27T04:23:07.309Z,101266.84
2022-08-27T04:25:40.509Z,101259.16
2022-08-27T04:28:16.565Z,101260.81
2022-08-27T04:30:48.665Z,101256.13
2022-08-27T04:33:20.642Z,101260.06
2022-08-27T04:36:03.527Z,101259.72
2022-08-27T04:38:35.834Z,101269.09
2022-08-27T04:41:23.158Z,101268.00
2022-08-27T04:43:57.511Z,101270.28
2022-08-27T04:46:32.946Z,101267.25
2022-08-27T04:49:10.270Z,101273.34
2022-08-27T04:51:43.377Z,101266.47
2022-08-27T04:54:15.694Z,101273.66
2022-08-27T04:56:49.285Z,101272.50
2022-08-27T04:59:21.308Z,101267.50
2022-08-27T05:01:53.801Z,101278.53
2022-08-27T05:04:26.599Z,101274.09
2022-08-27T05:06:59.337Z,101278.53
2022-08-27T05:09:31.486Z,101274.66
2022-08-27T05:12:03.904Z,101274.66
2022-08-27T05:14:35.872Z,101276.34
2022-08-27T05:17:07.893Z,101280.69
2022-08-27T05:19:40.083Z,101280.69
2022-08-27T05:22:12.217Z,101279.88
2022-08-27T05:24:50.193Z,101282.88
2022-08-27T05:27:22.568Z,101289.72
2022-08-27T05:29:55.563Z,101285.06
2022-08-27T05:32:27.600Z,101281.72
2022-08-27T05:34:59.546Z,101291.31
2022-08-27T05:37:34.041Z,101286.06
2022-08-27T05:40:07.099Z,101293.50
2022-08-27T05:42:39.722Z,101287.97
2022-08-27T05:45:11.575Z,101295.41
2022-08-27T05:47:46.939Z,101283.53
2022-08-27T05:50:23.467Z,101289.06
2022-08-27T05:52:55.713Z,101294.31
2022-08-27T05:55:27.714Z,101286.91
2022-08-27T05:57:59.564Z,101294.09
2022-08-27T06:00:50.048Z,101290.22
2022-08-27T06:03:22.496Z,101300.44
2022-08-27T06:06:05.486Z,101299.84
2022-08-27T06:08:38.241Z,101294.84
2022-08-27T06:11:11.700Z,101295.91
2022-08-27T06:13:43.685Z,101305.78
2022-08-27T06:16:17.909Z,101293.91
2022-08-27T06:18:50.326Z,101298.59
2022-08-27T06:21:24.647Z,101293.91
2022-08-27T06:23:57.446Z,101307.44
2022-08-27T06:26:29.998Z,101300.75
2022-08-27T06:29:06.119Z,101303.41
2022-08-27T06:31:38.670Z,101299.25
2022-08-27T06:34:11.493Z,101300.94
2022-08-27T06:36:43.420Z,101303.94
2022-08-27T06:39:16.887Z,101313.88
2022-08-27T06:41:50.355Z,101311.69
2022-08-27T06:44:26.217Z,101303.41
2022-08-27T06:46:59.218Z,101313.13
2022-08-27T06:49:31.821Z,101307.34
2022-08-27T06:52:03.931Z,101306.78
2022-08-27T06:54:36.091Z,101313.38
2022-08-27T06:57:08.078Z,101303.41
2022-08-27T06:59:40.260Z,101314.13
2022-08-27T07:02:13.393Z,101301.94
2022-08-27T07:04:45.447Z,101314.28
2022-08-27T07:07:33.074Z,101304.84
2022-08-27T07:10:11.907Z,101316.94
2022-08-27T07:12:43.933Z,101308.94
2022-08-27T07:15:16.273Z,101312.50
2022-08-27T07:17:49.116Z,101319.13
2022-08-27T07:20:21.941Z,101311.44
2022-08-27T07:22:54.600Z,101318.09
2022-08-27T07:25:27.071Z,101317.63
2022-08-27T07:28:00.146Z,101314.88
2022-08-27T07:30:32.212Z,101327.66
2022-08-27T07:33:04.611Z,101332.66
2022-08-27T07:35:36.700Z,101332.06
2022-08-27T07:38:11.534Z,101337.00
2022-08-27T07:40:43.989Z,101333.66
2022-08-27T07:43:34.911Z,101339.66
2022-08-27T07:46:06.856Z,101339.56
2022-08-27T07:48:38.838Z,101342.56
2022-08-27T07:51:17.761Z,101341.16
2022-08-27T07:53:50.245Z,101349.66
2022-08-27T07:56:22.855Z,101347.75
2022-08-27T07:58:55.137Z,101350.50
2022-08-27T08:01:27.970Z,101355.31
2022-08-27T08:03:59.910Z,101360.59
2022-08-27T08:06:31.815Z,101355.69
2022-08-27T08:09:05.021Z,101367.50
2022-08-27T08:11:37.021Z,101367.50
2022-08-27T08:14:08.956Z,101367.50
2022-08-27T08:16:41.010Z,101365.34
2022-08-27T08:19:13.202Z,101383.06
2022-08-27T08:21:45.357Z,101377.31
2022-08-27T08:24:17.707Z,101369.88
2022-08-27T08:26:49.860Z,101377.06
2022-08-27T08:29:22.075Z,101373.19
2022-08-27T08:31:54.071Z,101379.91
2022-08-27T08:34:26.079Z,101373.91
2022-08-27T08:36:58.075Z,101388.59
2022-08-27T08:39:30.223Z,101388.94
2022-08-27T08:42:04.103Z,101388.44
2022-08-27T08:44:43.182Z,101390.69
2022-08-27T08:47:33.206Z,101384.69
2022-08-27T08:50:19.989Z,101392.69
2022-08-27T08:53:07.547Z,101390.78
2022-08-27T08:55:52.333Z,101394.13
2022-08-27T08:58:39.664Z,101404.66
2022-08-27T09:01:15.008Z,101400.81
2022-08-27T09:03:55.033Z,101404.41
2022-08-27T09:06:32.825Z,101406.34
2022-08-27T09:09:16.113Z,101409.09
2022-08-27T09:11:57.368Z,101409.66
2022-08-27T09:14:38.230Z,101414.34
2022-08-27T09:17:11.284Z,101417.34
2022-08-27T09:19:43.764Z,101412.94
2022-08-27T09:22:43.148Z,101416.19
2022-08-27T09:25:31.756Z,101412.50
2022-08-27T09:28:30.497Z,101414.34
2022-08-27T09:31:07.747Z,101412.66
2022-08-27T09:33:52.417Z,101416.25
2022-08-27T09:36:28.343Z,101403.31
2022-08-27T09:39:04.009Z,101412.75
2022-08-27T09:41:51.097Z,101415.00
2022-08-27T09:44:23.405Z,101417.50
2022-08-27T09:46:57.948Z,101410.69
2022-08-27T09:49:31.475Z,101421.44
2022-08-27T09:52:04.460Z,101410.16
2022-08-27T09:54:47.236Z,101417.34
2022-08-27T09:57:42.424Z,101413.53
2022-08-27T10:00:16.865Z,101416.84
2022-08-27T10:02:54.219Z,101419.38
2022-08-27T10:05:38.112Z,101424.56
2022-08-27T10:08:39.143Z,101421.78
2022-08-27T10:11:17.557Z,101418.53
2022-08-27T10:13:57.643Z,101413.09
2022-08-27T10:16:41.712Z,101416.47
2022-08-27T10:19:28.086Z,101414.38
2022-08-27T10:22:18.564Z,101422.75
2022-08-27T10:25:17.263Z,101416.00
2022-08-27T10:28:06.741Z,101420.22
2022-08-27T10:30:58.944Z,101414.28
2022-08-27T10:33:55.645Z,101417.72
2022-08-27T10:37:14.178Z,101410.09
2022-08-27T10:40:06.685Z,101417.34
2022-08-27T10:42:44.907Z,101414.19
2022-08-27T10:45:32.078Z,101419.19
2022-08-27T10:48:14.504Z,101420.00
2022-08-27T10:51:08.814Z,101417.25
2022-08-27T10:53:47.988Z,101418.09
2022-08-27T10:56:40.129Z,101417.31
2022-08-27T10:59:52.856Z,101413.78
2022-08-27T11:02:36.823Z,101422.19
2022-08-27T11:05:23.747Z,101421.16
2022-08-27T11:08:06.631Z,101422.31
2022-08-27T11:10:43.684Z,101416.78
2022-08-27T11:13:38.510Z,101424.50
2022-08-27T11:16:17.464Z,101423.94
2022-08-27T11:19:15.075Z,101425.00
2022-08-27T11:22:02.645Z,101423.34
2022-08-27T11:24:47.857Z,101427.69
2022-08-27T11:27:23.353Z,101426.53
2022-08-27T11:30:23.594Z,101427.00
2022-08-27T11:33:13.730Z,101427.00
2022-08-27T11:36:07.138Z,101422.00
2022-08-27T11:39:17.255Z,101412.13
2022-08-27T11:41:49.901Z,101421.34
2022-08-27T11:44:24.379Z,101423.94
2022-08-27T11:47:08.918Z,101423.47
2022-08-27T11:49:47.765Z,101422.44
2022-08-27T11:52:25.139Z,101409.31
2022-08-27T11:55:22.110Z,101412.69
2022-08-27T11:58:18.011Z,101412.19
2022-08-27T12:00:53.400Z,101409.16
2022-08-27T12:03:29.536Z,101416.66
2022-08-27T12:06:01.394Z,101413.97
2022-08-27T12:08:35.452Z,101413.47
2022-08-27T12:11:30.065Z,101411.31
2022-08-27T12:14:20.782Z,101408.03
2022-08-27T12:17:14.548Z,101412.78
2022-08-27T12:20:22.095Z,101409.31
2022-08-27T12:23:28.312Z,101407.13
2022-08-27T12:26:13.503Z,101411.88
2022-08-27T12:28:45.806Z,101403.91
2022-08-27T12:31:19.901Z,101403.41
2022-08-27T12:33:53.930Z,101399.66
2022-08-27T12:36:28.536Z,101404.22
2022-08-27T12:39:02.827Z,101400.25
2022-08-27T12:41:44.663Z,101399.56
2022-08-27T12:44:31.555Z,101399.13
2022-08-27T12:47:10.486Z,101392.13
2022-08-27T12:49:58.007Z,101390.31
2022-08-27T12:52:57.676Z,101396.84
2022-08-27T12:55:57.407Z,101397.09
2022-08-27T12:58:44.431Z,101382.00
2022-08-27T13:01:22.518Z,101374.88
2022-08-27T13:03:56.035Z,101369.84
2022-08-27T13:06:30.163Z,101372.81
2022-08-27T13:09:06.651Z,101371.28
2022-08-27T13:11:48.529Z,101370.34
2022-08-27T13:14:21.516Z,101364.97
2022-08-27T13:16:59.505Z,101365.56
2022-08-27T13:19:35.581Z,101363.44
2022-08-27T13:22:08.149Z,101361.75
2022-08-27T13:24:48.859Z,101360.69
2022-08-27T13:27:29.602Z,101354.59
2022-08-27T13:30:14.395Z,101356.28
2022-08-27T13:33:06.461Z,101351.09
2022-08-27T13:35:41.755Z,101352.13
2022-08-27T13:38:15.611Z,101343.72
2022-08-27T13:41:07.676Z,101347.78
2022-08-27T13:43:44.982Z,101347.44
2022-08-27T13:46:22.841Z,101349.97
2022-08-27T13:48:56.695Z,101338.88
2022-08-27T13:51:33.716Z,101344.69
2022-08-27T13:54:13.595Z,101338.00
2022-08-27T13:56:47.997Z,101337.63
2022-08-27T13:59:20.599Z,101338.38
2022-08-27T14:02:09.600Z,101323.69
2022-08-27T14:04:44.331Z,101327.63
2022-08-27T14:07:19.075Z,101330.28
2022-08-27T14:09:55.050Z,101328.81
2022-08-27T14:12:41.431Z,101334.22
2022-08-27T14:15:32.269Z,101329.41
2022-08-27T14:18:07.082Z,101325.03
2022-08-27T14:20:39.274Z,101322.72
2022-08-27T14:23:11.292Z,101329.22
2022-08-27T14:25:44.075Z,101318.69
2022-08-27T14:28:16.360Z,101325.06
2022-08-27T14:30:52.048Z,101316.88
2022-08-27T14:33:25.597Z,101321.28
2022-08-27T14:35:57.889Z,101326.19
2022-08-27T14:38:31.782Z,101317.66
2022-08-27T14:41:06.695Z,101316.94
2022-08-27T14:43:38.786Z,101317.94
2022-08-27T14:46:24.046Z,101325.56
2022-08-27T14:48:59.810Z,101323.16
2022-08-27T14:51:32.601Z,101318.06
2022-08-27T14:54:04.807Z,101322.59
2022-08-27T14:56:36.798Z,101316.97
2022-08-27T14:59:08.787Z,101325.03
2022-08-27T15:01:40.882Z,101322.50
2022-08-27T15:04:12.957Z,101324.84
2022-08-27T15:06:45.048Z,101327.53
2022-08-27T15:09:17.428Z,101322.91
2022-08-27T15:11:49.996Z,101325.84
2022-08-27T15:14:27.800Z,101329.31
2022-08-27T15:17:00.959Z,101329.75
2022-08-27T15:19:33.473Z,101339.28
2022-08-27T15:22:19.012Z,101335.81
2022-08-27T15:24:54.175Z,101345.06
2022-08-27T15:27:32.164Z,101345.06
2022-08-27T15:30:14.079Z,101338.44
2022-08-27T15:32:48.064Z,101346.78
2022-08-27T15:35:26.273Z,101348.75
2022-08-27T15:37:58.853Z,101344.31
2022-08-27T15:40:33.723Z,101346.84
2022-08-27T15:43:07.584Z,101345.75
2022-08-27T15:45:40.351Z,101346.28
2022-08-27T15:48:12.851Z,101347.13
2022-08-27T15:50:45.400Z,101355.19
2022-08-27T15:53:19.986Z,101350.75
2022-08-27T15:55:51.958Z,101349.09
2022-08-27T15:58:23.961Z,101356.31
2022-08-27T16:01:10.317Z,101350.22
2022-08-27T16:03:44.104Z,101362.44
2022-08-27T16:06:19.445Z,101351.34
2022-08-27T16:08:52.381Z,101355.78
2022-08-27T16:11:24.739Z,101356.88
2022-08-27T16:13:56.739Z,101354.69
2022-08-27T16:16:31.329Z,101364.38
2022-08-27T16:19:05.448Z,101363.81
2022-08-27T16:21:37.917Z,101365.19
2022-08-27T16:24:11.010Z,101366.56
2022-08-27T16:26:43.004Z,101366.22
2022-08-27T16:29:15.636Z,101371.22
2022-08-27T16:31:48.068Z,101368.13
2022-08-27T16:34:28.335Z,101368.38
2022-08-27T16:37:00.305Z,101362.81
2022-08-27T16:39:35.372Z,101369.16
2022-08-27T16:42:10.306Z,101369.34
2022-08-27T16:44:42.748Z,101376.50
2022-08-27T16:47:15.165Z,101383.69
2022-08-27T16:50:06.285Z,101379.22
2022-08-27T16:52:38.635Z,101376.13
2022-08-27T16:55:11.869Z,101389.63
2022-08-27T16:57:44.195Z,101391.84
2022-08-27T17:00:16.339Z,101396.22
2022-08-27T17:02:48.352Z,101388.38
2022-08-27T17:05:34.097Z,101399.66
2022-08-27T17:08:11.592Z,101402.44
2022-08-27T17:10:46.665Z,101394.13
2022-08-27T17:13:21.273Z,101408.53
2022-08-27T17:16:01.807Z,101401.84
2022-08-27T17:18:35.007Z,101398.16
2022-08-27T17:21:07.632Z,101393.69
2022-08-27T17:23:43.059Z,101396.97
2022-08-27T17:26:16.399Z,101409.38
2022-08-27T17:28:49.628Z,101409.88
2022-08-27T17:31:28.297Z,101414.53
2022-08-27T17:34:00.885Z,101414.72
2022-08-27T17:36:33.635Z,101425.19
2022-08-27T17:39:06.388Z,101421.72
2022-08-27T17:41:44.323Z,101423.56
2022-08-27T17:44:42.558Z,101426.56
2022-08-27T17:47:14.647Z,101415.63
2022-08-27T17:49:46.600Z,101433.22
2022-08-27T17:52:19.026Z,101435.38
2022-08-27T17:54:56.296Z,101440.31
2022-08-27T17:57:40.490Z,101439.34
2022-08-27T18:00:14.889Z,101451.38
2022-08-27T18:02:49.166Z,101450.44
2022-08-27T18:05:25.988Z,101445.09
2022-08-27T18:07:58.159Z,101451.84
2022-08-27T18:10:30.238Z,101449.84
2022-08-27T18:13:02.650Z,101452.22
2022-08-27T18:15:36.101Z,101457.81
2022-08-27T18:18:09.909Z,101460.19
2022-08-27T18:20:42.580Z,101457.84
2022-08-27T18:23:14.998Z,101471.03
2022-08-27T18:25:47.194Z,101469.03
2022-08-27T18:28:19.532Z,101470.88
2022-08-27T18:30:51.670Z,101474.38
2022-08-27T18:33:23.694Z,101474.63
2022-08-27T18:35:55.786Z,101479.31
2022-08-27T18:38:27.927Z,101487.25
2022-08-27T18:41:00.571Z,101481.06
2022-08-27T18:43:34.920Z,101490.38
2022-08-27T18:46:07.117Z,101490.38
2022-08-27T18:48:39.166Z,101485.38
2022-08-27T18:51:14.187Z,101494.03
2022-08-27T18:53:47.531Z,101493.47
2022-08-27T18:56:19.925Z,101487.16
2022-08-27T18:58:52.150Z,101495.81
2022-08-27T19:01:25.649Z,101495.81
2022-08-27T19:03:58.331Z,101495.81
2022-08-27T19:06:30.490Z,101493.66
2022-08-27T19:09:02.540Z,101498.31
2022-08-27T19:11:34.575Z,101504.31
2022-08-27T19:14:06.544Z,101500.13
2022-08-27T19:16:48.258Z,101504.00
2022-08-27T19:19:20.333Z,101504.13
2022-08-27T19:21:52.358Z,101505.94
2022-08-27T19:24:24.359Z,101509.66
2022-08-27T19:26:56.840Z,101510.16
2022-08-27T19:29:28.966Z,101507.88
2022-08-27T19:32:00.892Z,101520.56
2022-08-27T19:34:32.894Z,101513.16
2022-08-27T19:37:06.884Z,101509.56
2022-08-27T19:39:38.935Z,101513.38
2022-08-27T19:42:11.263Z,101519.38
2022-08-27T19:44:44.420Z,101521.91
2022-08-27T19:47:17.547Z,101518.31
2022-08-27T19:49:54.474Z,101523.59
2022-08-27T19:52:26.481Z,101523.31
2022-08-27T19:55:13.063Z,101524.41
2022-08-27T19:57:47.040Z,101524.66
2022-08-27T20:00:20.655Z,101530.41
2022-08-27T20:02:52.948Z,101527.06
2022-08-27T20:05:25.261Z,101520.34
2022-08-27T20:07:57.327Z,101524.69
2022-08-27T20:10:36.530Z,101526.44
2022-08-27T20:13:09.380Z,101522.28
2022-08-27T20:15:41.648Z,101518.34
2022-08-27T20:18:14.429Z,101529.22
2022-08-27T20:20:46.370Z,101535.19
2022-08-27T20:23:18.719Z,101532.34
2022-08-27T20:25:52.318Z,101522.03
2022-08-27T20:28:40.549Z,101522.16
2022-08-27T20:31:12.718Z,101520.75
2022-08-27T20:33:44.783Z,101523.13
2022-08-27T20:36:16.808Z,101526.84
2022-08-27T20:38:48.720Z,101532.81
2022-08-27T20:41:21.752Z,101529.13
2022-08-27T20:43:54.324Z,101531.25
2022-08-27T20:46:28.057Z,101527.09
2022-08-27T20:49:00.287Z,101530.28
2022-08-27T20:52:02.421Z,101522.53
2022-08-27T20:54:24.694Z,101526.84
2022-08-27T20:56:56.663Z,101536.16
2022-08-27T20:59:47.745Z,101526.00
2022-08-27T21:02:23.361Z,101529.59
2022-08-27T21:04:56.333Z,101525.16
2022-08-27T21:07:28.378Z,101536.16
2022-08-27T21:10:00.426Z,101535.53
2022-08-27T21:12:32.672Z,101542.38
2022-08-27T21:15:06.035Z,101541.75
2022-08-27T21:17:38.021Z,101532.50
2022-08-27T21:20:11.368Z,101541.22
2022-08-27T21:22:44.068Z,101539.78
2022-08-27T21:25:16.014Z,101541.34
2022-08-27T21:27:48.150Z,101542.66
2022-08-27T21:30:21.475Z,101539.91
2022-08-27T21:32:57.644Z,101537.16
2022-08-27T21:35:31.464Z,101539.06
2022-08-27T21:38:03.597Z,101541.19
2022-08-27T21:40:36.175Z,101533.19
2022-08-27T21:43:08.423Z,101533.66
2022-08-27T21:45:41.703Z,101537.72
2022-08-27T21:48:14.009Z,101533.75
2022-08-27T21:50:46.314Z,101540.56
2022-08-27T21:53:19.107Z,101534.72
2022-08-27T21:55:53.420Z,101538.97
2022-08-27T21:58:26.698Z,101541.97
2022-08-27T22:00:59.203Z,101538.03
2022-08-27T22:03:33.050Z,101538.25
2022-08-27T22:06:07.945Z,101536.56
2022-08-27T22:08:39.940Z,101532.38
2022-08-27T22:11:12.447Z,101534.03
2022-08-27T22:13:44.579Z,101541.69
2022-08-27T22:16:16.612Z,101534.53
2022-08-27T22:18:54.492Z,101537.28
2022-08-27T22:21:27.054Z,101548.47
2022-08-27T22:23:59.501Z,101536.66
2022-08-27T22:26:32.006Z,101542.63
2022-08-27T22:29:04.997Z,101541.16
2022-08-27T22:31:36.991Z,101543.53
2022-08-27T22:34:14.931Z,101545.69
2022-08-27T22:36:48.186Z,101540.06
2022-08-27T22:39:20.206Z,101537.75
2022-08-27T22:41:52.517Z,101545.41
2022-08-27T22:44:25.103Z,101544.19
2022-08-27T22:46:57.580Z,101549.66
2022-08-27T22:49:29.637Z,101559.41
2022-08-27T22:52:01.826Z,101559.25
2022-08-27T22:54:33.890Z,101554.81
2022-08-27T22:57:06.261Z,101553.19
2022-08-27T22:59:42.474Z,101552.56
2022-08-27T23:02:14.459Z,101551.94
2022-08-27T23:04:55.013Z,101553.03
2022-08-27T23:07:27.926Z,101547.97
2022-08-27T23:09:59.919Z,101543.53
2022-08-27T23:12:34.135Z,101547.81
2022-08-27T23:15:11.520Z,101556.31
2022-08-27T23:17:44.347Z,101549.13
2022-08-27T23:20:17.251Z,101550.41
2022-08-27T23:22:50.528Z,101553.00
2022-08-27T23:25:43.793Z,101549.41
2022-08-27T23:28:16.150Z,101548.00
2022-08-27T23:30:48.216Z,101545.94
2022-08-27T23:33:20.812Z,101547.69
2022-08-27T23:35:52.912Z,101544.31
2022-08-27T23:38:25.113Z,101541.81
2022-08-27T23:40:57.925Z,101544.78
2022-08-27T23:43:32.089Z,101536.75
2022-08-27T23:46:04.331Z,101543.94
2022-08-27T23:48:36.361Z,101535.06
2022-08-27T23:51:09.343Z,101546.06
2022-08-27T23:53:41.422Z,101544.00
2022-08-27T23:56:13.500Z,101539.44
2022-08-27T23:58:45.721Z,101546.19
